首页
METAR-TAF:

METAR-TAF

机场 :

克赖斯特彻奇国际机场

基督城, 新西兰

纬度: 43-29S, 经度: 172-33E, 海拔: 38米

当前天气观测

该预报发布于19分钟前的18:30 UTC
风速3节,风向北转西北
温度 11°C
湿度 87%
气压 1011 hPa
能見度: 4500

METAR: NZCH 071830Z AUTO 33003KT 4500 HZ OVC039/// 11/09 Q1011 NOSIG

时间: 06:49 (18:49 UTC)

预报

该预报发布于1小时和48分钟前的17:01 UTC
预报有效从07日的 18点(UTC)到 08日的 18点(UTC)
风速2节,风向多变
能见度10公里或以上
多云层高于4000英尺
成为
从 07日的 21点(UTC)到 07日的 23点(UTC)
风速12节,风向东转东北
从 08日的 0900点(UTC)
风速5节,风向西转西南
能见度10公里或以上
散云层高于5000英尺
多云层高于7000英尺
小雨

TAF: NZCH 071701Z 0718/0818 VRB02KT 9999 BKN040 BECMG 0721/0723 06012KT FM080900 24005KT 9999 -RA SCT050 BKN070

超过4000个机场的气象观测和天气预报(METAR&TAF报告)。

可查询的气象台以黄色和红色小点在地图上表示。

将鼠标移到小点上方,可查看气象台名称。

然后点击查看天气观测和预报。

如需切换地图:点击带黑十字的绿色按钮放大地图;点击带横线的绿色按钮缩小地图;或者点击绿色箭头查看邻近地区的地图。


METAR-TAF: